Time;durP1;ratioP1;P1;durP2;ratioP2;P2;SDS_P1;SDS_P2;PMS_P1;PMS_P2;Temp;Humidity;BMP_temperature;BMP_pressure;BME280_temperature;BME280_humidity;BME280_pressure;Samples;Min_cycle;Max_cycle;Signal;HPM_P1;HPM_P2
2023/10/26 00:01:54;;;;;;;21.90;19.47;;;11.00;99.90;;;;;;5046042;28;20537;-86
2023/10/26 00:04:21;;;;;;;22.17;19.17;;;11.10;99.90;;;;;;5041317;28;20256;-86
2023/10/26 00:06:47;;;;;;;21.40;19.20;;;10.90;99.90;;;;;;5012603;28;20208;-85
2023/10/26 00:09:12;;;;;;;22.83;19.10;;;11.00;99.90;;;;;;5012805;28;20173;-86
2023/10/26 00:11:38;;;;;;;21.27;18.73;;;10.80;99.90;;;;;;5013541;28;20695;-85
2023/10/26 00:14:04;;;;;;;21.30;19.20;;;10.90;99.90;;;;;;5012644;28;20205;-85
2023/10/26 00:16:30;;;;;;;21.20;19.00;;;10.60;99.90;;;;;;5012492;28;20171;-84
2023/10/26 00:18:55;;;;;;;21.37;18.27;;;10.60;99.90;;;;;;5013144;28;20175;-85
2023/10/26 00:21:21;;;;;;;20.90;18.67;;;10.50;99.90;;;;;;5012531;28;20617;-85
2023/10/26 00:23:47;;;;;;;20.93;18.27;;;10.40;99.90;;;;;;5011408;28;20178;-85
2023/10/26 00:26:12;;;;;;;21.77;19.57;;;10.40;99.90;;;;;;5011622;28;20246;-84
2023/10/26 00:28:39;;;;;;;21.27;19.10;;;10.20;99.90;;;;;;5013684;28;20217;-87
2023/10/26 00:31:05;;;;;;;22.73;19.00;;;10.10;99.90;;;;;;5015449;28;20182;-85
2023/10/26 00:33:31;;;;;;;23.00;19.67;;;10.10;99.90;;;;;;5033114;28;20262;-85
2023/10/26 00:35:56;;;;;;;22.37;20.10;;;10.10;99.90;;;;;;5022496;28;20272;-86
2023/10/26 00:38:22;;;;;;;21.07;18.87;;;10.20;99.90;;;;;;5013513;28;20193;-85
2023/10/26 00:40:49;;;;;;;23.07;20.50;;;10.20;99.90;;;;;;5012834;28;20182;-86
2023/10/26 00:43:22;;;;;;;22.60;20.13;;;10.30;99.90;;;;;;5013048;28;20178;-85
2023/10/26 00:45:53;;;;;;;21.97;19.60;;;10.30;99.90;;;;;;5012413;28;20218;-85
2023/10/26 00:48:23;;;;;;;22.53;20.23;;;10.40;99.90;;;;;;5011591;28;20170;-84
2023/10/26 00:50:49;;;;;;;23.00;20.67;;;10.40;99.90;;;;;;5012802;28;20654;-85
2023/10/26 00:53:18;;;;;;;21.50;19.43;;;10.30;99.90;;;;;;5011958;28;20179;-85
2023/10/26 00:55:48;;;;;;;22.30;20.13;;;10.40;99.90;;;;;;5012341;28;20186;-85
2023/10/26 00:58:15;;;;;;;22.10;19.73;;;10.40;99.90;;;;;;5013147;28;20187;-85
2023/10/26 01:00:41;;;;;;;23.43;20.97;;;10.50;99.90;;;;;;5012440;28;20623;-85
2023/10/26 01:03:13;;;;;;;22.23;19.93;;;10.50;99.90;;;;;;5012455;28;20185;-85
2023/10/26 01:05:38;;;;;;;23.33;19.87;;;10.40;99.90;;;;;;5011729;28;20209;-86
2023/10/26 01:08:06;;;;;;;23.10;20.60;;;10.50;99.90;;;;;;5011968;28;20168;-87
2023/10/26 01:10:35;;;;;;;21.90;19.57;;;10.70;99.90;;;;;;5012622;28;20521;-86
2023/10/26 01:13:01;;;;;;;21.27;19.13;;;10.70;99.90;;;;;;5012462;28;20217;-85
2023/10/26 01:15:26;;;;;;;24.27;20.07;;;10.90;99.90;;;;;;5012054;28;20190;-86
2023/10/26 01:17:52;;;;;;;23.80;21.20;;;10.80;99.90;;;;;;5011985;28;20276;-86
2023/10/26 01:20:19;;;;;;;22.80;20.40;;;10.80;99.90;;;;;;5012047;28;20174;-85
2023/10/26 01:22:45;;;;;;;22.60;20.20;;;10.80;99.90;;;;;;5012474;28;20170;-84
2023/10/26 01:25:10;;;;;;;22.17;19.50;;;10.50;99.90;;;;;;5011673;28;20686;-84
2023/10/26 01:27:37;;;;;;;21.13;18.83;;;10.50;99.90;;;;;;5010325;28;20693;-84
2023/10/26 01:30:03;;;;;;;21.57;19.20;;;10.40;99.90;;;;;;5012009;28;20175;-85
2023/10/26 01:32:29;;;;;;;22.63;19.17;;;10.40;99.90;;;;;;5012269;28;20278;-87
2023/10/26 01:34:54;;;;;;;22.80;20.27;;;10.60;99.90;;;;;;5011422;28;20210;-85
2023/10/26 01:37:20;;;;;;;22.33;20.03;;;10.70;99.90;;;;;;5011924;28;20685;-84
2023/10/26 01:39:46;;;;;;;24.37;21.33;;;10.80;99.90;;;;;;5011460;28;20601;-85
2023/10/26 01:42:12;;;;;;;23.17;20.67;;;10.90;99.90;;;;;;5011862;28;20219;-85
2023/10/26 01:44:38;;;;;;;26.87;21.27;;;10.80;99.90;;;;;;5012121;28;20187;-85
2023/10/26 01:47:06;;;;;;;23.27;20.60;;;11.00;99.90;;;;;;5013704;28;20244;-85
2023/10/26 01:49:32;;;;;;;22.60;20.23;;;11.00;99.90;;;;;;5027372;28;20185;-85
2023/10/26 01:51:58;;;;;;;24.47;21.83;;;10.80;99.90;;;;;;5029848;28;20178;-84
2023/10/26 01:54:23;;;;;;;24.43;20.53;;;10.70;99.90;;;;;;5029651;28;20175;-86
2023/10/26 01:56:49;;;;;;;22.63;20.23;;;10.80;99.90;;;;;;5026821;28;20175;-85
2023/10/26 01:59:15;;;;;;;22.80;19.80;;;10.70;99.90;;;;;;5029961;28;20187;-85
2023/10/26 02:01:40;;;;;;;22.07;19.67;;;10.70;99.90;;;;;;5028831;28;20185;-85
2023/10/26 02:04:06;;;;;;;23.13;20.73;;;10.80;99.90;;;;;;5026841;28;20249;-85
2023/10/26 02:06:32;;;;;;;22.77;20.37;;;11.00;99.90;;;;;;5029120;28;20815;-86
2023/10/26 02:08:57;;;;;;;24.77;20.93;;;11.10;99.90;;;;;;5028952;28;20176;-84
2023/10/26 02:11:23;;;;;;;24.50;20.97;;;11.20;99.90;;;;;;5028098;28;20185;-83
2023/10/26 02:13:49;;;;;;;23.47;20.67;;;11.30;99.90;;;;;;5028001;28;20527;-83
2023/10/26 02:16:20;;;;;;;23.47;20.40;;;11.30;99.90;;;;;;5027583;28;20225;-84
2023/10/26 02:18:46;;;;;;;22.83;20.33;;;11.50;99.90;;;;;;5028536;28;20262;-86
2023/10/26 02:21:12;;;;;;;23.77;20.47;;;11.30;99.90;;;;;;5030165;28;20265;-87
2023/10/26 02:23:41;;;;;;;23.73;21.20;;;11.30;99.90;;;;;;5032724;28;20265;-86
2023/10/26 02:26:06;;;;;;;23.47;20.57;;;11.50;99.90;;;;;;5030481;28;20331;-85
2023/10/26 02:28:32;;;;;;;22.37;19.90;;;11.40;99.90;;;;;;5030814;28;20929;-84
2023/10/26 02:30:57;;;;;;;23.80;21.10;;;11.40;99.90;;;;;;5031625;28;20555;-84
2023/10/26 02:33:23;;;;;;;25.87;22.67;;;11.40;99.90;;;;;;5031245;28;20237;-84
2023/10/26 02:35:49;;;;;;;25.60;21.13;;;11.50;99.90;;;;;;5031538;28;20723;-84
2023/10/26 02:38:14;;;;;;;24.50;21.87;;;11.50;99.90;;;;;;5031812;28;20193;-86
2023/10/26 02:40:42;;;;;;;25.90;21.80;;;11.50;99.90;;;;;;5031259;28;20598;-85
2023/10/26 02:43:08;;;;;;;23.53;20.00;;;11.40;99.90;;;;;;5030360;28;20635;-85
2023/10/26 02:45:34;;;;;;;23.13;20.57;;;11.20;99.90;;;;;;5030815;28;20241;-85
2023/10/26 02:48:02;;;;;;;25.13;21.20;;;11.40;99.90;;;;;;5030924;28;20178;-85
2023/10/26 02:50:28;;;;;;;30.00;24.10;;;11.30;99.90;;;;;;5031441;28;20631;-85
2023/10/26 02:52:54;;;;;;;25.43;22.70;;;11.50;99.90;;;;;;5030940;28;20177;-84
2023/10/26 02:55:22;;;;;;;25.70;22.73;;;11.40;99.90;;;;;;5031421;28;20260;-85
2023/10/26 02:57:48;;;;;;;28.63;22.43;;;11.30;99.90;;;;;;5030448;28;20188;-86
2023/10/26 03:00:16;;;;;;;23.43;20.90;;;11.30;99.90;;;;;;5031075;28;20703;-85
2023/10/26 03:02:42;;;;;;;24.13;20.53;;;10.90;99.90;;;;;;5031551;28;20317;-85
2023/10/26 03:05:08;;;;;;;23.40;20.87;;;10.80;99.90;;;;;;5031908;28;20241;-86
2023/10/26 03:07:34;;;;;;;27.17;20.20;;;10.60;99.90;;;;;;5015548;28;20182;-85
2023/10/26 03:10:00;;;;;;;24.03;20.57;;;10.70;99.90;;;;;;5029749;28;20176;-86
2023/10/26 03:12:26;;;;;;;26.60;20.70;;;10.80;99.90;;;;;;5030970;28;20200;-86
2023/10/26 03:14:52;;;;;;;22.33;19.93;;;10.70;99.90;;;;;;5030921;28;20187;-85
2023/10/26 03:17:18;;;;;;;23.40;19.10;;;10.70;99.90;;;;;;5030558;28;20179;-85
2023/10/26 03:19:44;;;;;;;22.83;20.07;;;10.70;99.90;;;;;;5030193;28;20172;-85
2023/10/26 03:22:10;;;;;;;21.30;18.83;;;11.00;99.90;;;;;;5031131;28;20182;-85
2023/10/26 03:24:36;;;;;;;24.27;20.83;;;11.00;99.90;;;;;;5030050;28;20240;-85
2023/10/26 03:27:02;;;;;;;23.63;21.00;;;11.10;99.90;;;;;;5030547;28;20198;-84
2023/10/26 03:29:28;;;;;;;24.53;21.87;;;11.10;99.90;;;;;;5029237;28;20240;-85
2023/10/26 03:31:53;;;;;;;28.07;21.90;;;11.10;99.90;;;;;;5029849;28;20217;-84
2023/10/26 03:34:19;;;;;;;28.37;23.03;;;11.30;99.90;;;;;;5030077;28;20694;-85
2023/10/26 03:36:45;;;;;;;31.67;23.43;;;11.30;99.90;;;;;;5030954;28;20736;-85
2023/10/26 03:39:11;;;;;;;28.83;23.27;;;11.30;99.90;;;;;;5033017;28;20182;-84
2023/10/26 03:41:36;;;;;;;27.63;23.33;;;11.40;99.90;;;;;;5047621;28;20179;-85
2023/10/26 03:44:03;;;;;;;28.30;22.27;;;11.30;99.90;;;;;;5043284;28;20189;-85
2023/10/26 03:46:29;;;;;;;29.97;24.20;;;11.30;99.90;;;;;;5035929;28;20682;-85
2023/10/26 03:48:58;;;;;;;26.47;23.67;;;11.20;99.90;;;;;;5033144;28;20233;-85
2023/10/26 03:51:23;;;;;;;31.87;24.90;;;11.30;99.90;;;;;;5030339;28;20175;-85
2023/10/26 03:53:50;;;;;;;29.67;23.60;;;11.30;99.90;;;;;;5029491;28;20185;-85
2023/10/26 03:56:16;;;;;;;30.37;23.63;;;11.30;99.90;;;;;;5028301;28;20183;-84
2023/10/26 03:58:41;;;;;;;31.10;25.40;;;11.30;99.90;;;;;;5030226;28;20189;-85
2023/10/26 04:01:07;;;;;;;30.70;25.77;;;11.30;99.90;;;;;;5029175;28;20241;-87
2023/10/26 04:03:33;;;;;;;30.93;25.43;;;11.30;99.90;;;;;;5029785;28;20198;-85
2023/10/26 04:05:58;;;;;;;31.40;24.90;;;11.30;99.90;;;;;;5029373;28;20210;-86
2023/10/26 04:08:24;;;;;;;26.87;23.27;;;11.30;99.90;;;;;;5028943;28;20215;-87
2023/10/26 04:10:50;;;;;;;26.37;23.17;;;11.20;99.90;;;;;;5029218;28;20174;-85
2023/10/26 04:13:15;;;;;;;24.87;22.07;;;11.00;99.90;;;;;;5029582;28;20623;-85
2023/10/26 04:15:41;;;;;;;26.27;20.67;;;10.80;99.90;;;;;;5029355;28;20554;-86
2023/10/26 04:18:07;;;;;;;23.90;20.37;;;10.70;99.90;;;;;;5028279;28;20182;-85
2023/10/26 04:20:32;;;;;;;24.93;21.63;;;10.60;99.90;;;;;;5029683;28;20209;-86
2023/10/26 04:22:58;;;;;;;26.60;20.93;;;10.40;99.90;;;;;;5029725;28;20182;-85
2023/10/26 04:25:28;;;;;;;24.70;20.27;;;10.50;99.90;;;;;;5031405;28;20218;-84
2023/10/26 04:27:55;;;;;;;24.43;21.53;;;10.40;99.90;;;;;;5029784;28;20265;-84
2023/10/26 04:30:21;;;;;;;26.20;20.70;;;10.60;99.90;;;;;;5028036;28;20658;-84
2023/10/26 04:32:49;;;;;;;26.30;21.67;;;10.60;99.90;;;;;;5013898;28;20638;-84
2023/10/26 04:35:14;;;;;;;23.43;20.60;;;10.70;99.90;;;;;;5029588;28;20174;-84
2023/10/26 04:37:42;;;;;;;26.07;21.93;;;10.80;99.90;;;;;;5027625;28;20274;-86
2023/10/26 04:40:09;;;;;;;27.40;21.73;;;10.80;99.90;;;;;;5029253;28;20197;-85
2023/10/26 04:42:35;;;;;;;28.50;21.10;;;10.80;99.90;;;;;;5028801;28;20170;-86
2023/10/26 04:45:00;;;;;;;24.73;20.40;;;10.70;99.90;;;;;;5027941;28;20763;-85
2023/10/26 04:47:26;;;;;;;23.50;20.13;;;10.90;99.90;;;;;;5027889;28;20186;-86
2023/10/26 04:49:52;;;;;;;26.57;20.90;;;10.90;99.90;;;;;;5029085;28;20268;-85
2023/10/26 04:52:20;;;;;;;25.27;21.07;;;10.90;99.90;;;;;;5027058;28;20546;-85
2023/10/26 04:54:46;;;;;;;25.30;21.67;;;11.00;99.90;;;;;;5027116;28;20172;-88
2023/10/26 04:57:12;;;;;;;27.30;21.73;;;10.90;99.90;;;;;;5027958;28;20632;-85
2023/10/26 04:59:37;;;;;;;25.57;21.23;;;10.90;99.90;;;;;;5028434;28;20177;-85
2023/10/26 05:02:03;;;;;;;24.50;20.30;;;11.00;99.90;;;;;;5029031;28;20187;-85
2023/10/26 05:04:29;;;;;;;23.80;19.83;;;11.00;99.90;;;;;;5028446;28;20173;-85
2023/10/26 05:06:55;;;;;;;24.30;19.37;;;10.90;99.90;;;;;;5028391;28;20219;-85
2023/10/26 05:09:20;;;;;;;23.90;18.37;;;11.00;99.90;;;;;;5028861;28;20261;-85
2023/10/26 05:11:46;;;;;;;23.33;18.80;;;11.20;99.90;;;;;;5028350;28;20183;-85
2023/10/26 05:14:12;;;;;;;21.27;18.00;;;11.00;99.90;;;;;;5028990;28;20854;-86
2023/10/26 05:16:37;;;;;;;20.87;18.30;;;10.90;99.90;;;;;;5027461;28;20537;-85
2023/10/26 05:19:06;;;;;;;18.83;16.87;;;11.00;99.90;;;;;;5029306;28;20178;-85
2023/10/26 05:21:32;;;;;;;19.03;16.47;;;10.80;99.90;;;;;;5030313;28;20171;-86
2023/10/26 05:23:58;;;;;;;21.47;16.37;;;10.80;99.90;;;;;;5029116;28;20174;-84
2023/10/26 05:26:23;;;;;;;20.50;16.50;;;10.60;99.90;;;;;;5026926;28;20669;-88
2023/10/26 05:28:49;;;;;;;22.47;16.77;;;10.60;99.90;;;;;;5028751;28;20187;-85
2023/10/26 05:31:15;;;;;;;19.97;15.80;;;10.70;99.90;;;;;;5030200;28;20202;-85
2023/10/26 05:33:41;;;;;;;17.70;15.67;;;10.80;99.90;;;;;;5031385;28;20178;-85
2023/10/26 05:36:07;;;;;;;20.67;17.17;;;10.90;99.90;;;;;;5030349;28;20211;-84
2023/10/26 05:38:33;;;;;;;19.50;16.23;;;10.80;99.90;;;;;;5028550;28;20260;-86
2023/10/26 05:40:59;;;;;;;21.40;16.63;;;10.90;99.90;;;;;;5028855;28;20181;-84
2023/10/26 05:49:22;;;;;;;19.50;15.30;;;10.90;99.90;;;;;;5053291;28;20214;-84
2023/10/26 05:51:47;;;;;;;18.67;15.73;;;10.90;99.90;;;;;;5052914;28;20212;-87
2023/10/26 05:54:13;;;;;;;17.17;14.90;;;11.10;99.90;;;;;;5050124;28;20245;-84
2023/10/26 05:56:38;;;;;;;19.50;15.90;;;11.00;99.90;;;;;;5050447;28;20170;-86
2023/10/26 05:59:04;;;;;;;22.20;15.63;;;10.90;99.90;;;;;;5050638;28;20261;-85
2023/10/26 06:01:31;;;;;;;22.97;17.17;;;10.90;99.90;;;;;;5053143;28;20270;-84
2023/10/26 06:03:56;;;;;;;18.60;15.83;;;10.90;99.90;;;;;;5049144;28;20158;-85
2023/10/26 06:06:23;;;;;;;21.30;16.87;;;10.90;99.90;;;;;;5046660;28;20213;-86
2023/10/26 06:08:49;;;;;;;20.17;16.37;;;10.80;99.90;;;;;;5038759;28;20210;-79
2023/10/26 06:11:16;;;;;;;22.13;16.60;;;10.70;99.90;;;;;;5032311;28;20230;-85
2023/10/26 06:13:42;;;;;;;20.63;17.20;;;10.60;99.90;;;;;;5030363;28;20174;-81
2023/10/26 06:16:12;;;;;;;18.77;16.10;;;10.60;99.90;;;;;;5045470;28;20671;-83
2023/10/26 06:18:41;;;;;;;21.23;16.93;;;10.70;99.90;;;;;;5038277;28;20173;-84
2023/10/26 06:21:13;;;;;;;24.20;17.63;;;10.70;99.90;;;;;;5027546;28;20183;-86
2023/10/26 06:23:38;;;;;;;88.20;27.47;;;10.70;99.90;;;;;;5030192;28;20193;-85
2023/10/26 06:26:04;;;;;;;149.87;33.03;;;10.70;99.90;;;;;;5026474;28;20586;-86
2023/10/26 06:28:31;;;;;;;51.40;19.97;;;10.70;99.90;;;;;;5027734;28;20172;-88
2023/10/26 06:31:09;;;;;;;25.73;15.53;;;10.60;99.90;;;;;;5019330;28;20261;-84
2023/10/26 06:33:34;;;;;;;25.53;16.30;;;10.60;99.90;;;;;;5019532;28;20187;-85
2023/10/26 06:36:00;;;;;;;21.20;15.13;;;10.60;99.90;;;;;;5020533;28;20651;-85
2023/10/26 06:38:26;;;;;;;46.03;18.37;;;10.80;99.90;;;;;;5020044;28;20175;-85
2023/10/26 06:40:51;;;;;;;21.80;16.40;;;10.90;99.90;;;;;;5018393;28;20253;-86
2023/10/26 06:43:17;;;;;;;21.67;14.47;;;11.00;99.90;;;;;;5022498;28;20208;-85
2023/10/26 06:45:43;;;;;;;20.17;14.53;;;11.00;99.90;;;;;;5022727;28;20554;-86
2023/10/26 06:48:09;;;;;;;25.30;15.97;;;11.00;99.90;;;;;;5018982;28;20208;-86
2023/10/26 06:50:34;;;;;;;22.87;14.97;;;10.90;99.90;;;;;;5020248;28;20167;-83
2023/10/26 06:53:01;;;;;;;21.37;15.53;;;11.00;99.90;;;;;;5030304;28;20160;-82
2023/10/26 06:55:37;;;;;;;25.83;15.60;;;11.10;99.90;;;;;;5029762;28;20181;-82
2023/10/26 06:58:04;;;;;;;74.10;20.90;;;11.10;99.90;;;;;;5037512;28;20184;-81
2023/10/26 07:00:30;;;;;;;27.97;15.33;;;11.20;99.90;;;;;;5020741;28;20217;-82
2023/10/26 07:02:56;;;;;;;25.17;15.27;;;11.30;99.90;;;;;;5037185;28;20167;-84
2023/10/26 07:05:22;;;;;;;21.60;14.37;;;11.50;99.90;;;;;;5023705;28;20220;-86
2023/10/26 07:07:50;;;;;;;21.10;14.30;;;11.50;99.90;;;;;;5019260;28;20185;-86
2023/10/26 07:10:18;;;;;;;15.67;12.53;;;11.60;99.90;;;;;;5016682;28;20247;-86
2023/10/26 07:12:45;;;;;;;17.00;12.30;;;11.60;99.90;;;;;;5016926;28;20178;-84
2023/10/26 07:15:11;;;;;;;17.67;12.77;;;11.70;99.90;;;;;;5017705;28;20188;-88
2023/10/26 07:17:38;;;;;;;17.27;13.67;;;11.80;99.90;;;;;;5017780;28;20182;-85
2023/10/26 07:20:05;;;;;;;15.30;12.17;;;11.90;99.90;;;;;;5018778;28;20224;-85
2023/10/26 07:22:34;;;;;;;17.33;12.07;;;12.00;99.90;;;;;;5036629;28;20176;-83
2023/10/26 07:25:01;;;;;;;16.47;11.30;;;12.00;99.90;;;;;;5030054;28;20240;-86
2023/10/26 07:27:27;;;;;;;12.70;9.97;;;12.00;99.90;;;;;;5021341;28;20188;-87
2023/10/26 07:29:54;;;;;;;12.07;9.87;;;12.00;99.90;;;;;;5015662;28;20171;-86
2023/10/26 07:32:20;;;;;;;12.53;10.60;;;12.10;99.90;;;;;;5033612;28;20158;-82
2023/10/26 07:34:46;;;;;;;12.87;10.33;;;12.30;99.90;;;;;;5031432;28;20162;-84
2023/10/26 07:37:11;;;;;;;12.73;9.97;;;12.20;99.90;;;;;;5023932;28;20166;-87
2023/10/26 07:39:37;;;;;;;11.90;9.37;;;12.40;99.90;;;;;;5020144;28;20659;-85
2023/10/26 07:42:04;;;;;;;11.93;9.30;;;12.50;99.90;;;;;;5021332;28;20540;-87
2023/10/26 07:44:33;;;;;;;11.50;8.37;;;12.30;99.90;;;;;;5000373;28;20194;-85
2023/10/26 07:46:59;;;;;;;10.83;8.90;;;12.20;99.90;;;;;;5018415;28;20221;-88
2023/10/26 07:49:25;;;;;;;13.13;9.17;;;12.30;99.90;;;;;;5020361;28;20317;-89
2023/10/26 07:51:50;;;;;;;11.10;9.23;;;12.20;99.90;;;;;;5018880;28;20174;-87
2023/10/26 07:54:17;;;;;;;15.50;8.83;;;12.40;99.90;;;;;;5018074;28;20274;-87
2023/10/26 07:56:43;;;;;;;24.03;11.53;;;12.40;99.90;;;;;;5017969;28;20626;-85
2023/10/26 07:59:09;;;;;;;21.57;10.07;;;12.40;99.90;;;;;;5024828;28;20201;-88
2023/10/26 08:01:36;;;;;;;12.23;9.10;;;12.50;99.90;;;;;;5033602;28;20162;-87
2023/10/26 08:04:01;;;;;;;13.83;8.43;;;12.50;99.90;;;;;;5033136;28;20163;-83
2023/10/26 08:06:28;;;;;;;12.57;7.70;;;12.40;99.90;;;;;;5033534;28;20190;-87
2023/10/26 08:08:54;;;;;;;11.50;8.37;;;12.20;99.90;;;;;;5033686;28;20162;-83
2023/10/26 08:11:20;;;;;;;9.17;7.73;;;12.20;99.90;;;;;;5032524;28;20170;-86
2023/10/26 08:13:46;;;;;;;10.70;8.50;;;12.10;99.90;;;;;;5023819;28;20169;-87
2023/10/26 08:16:11;;;;;;;10.00;7.77;;;11.90;99.90;;;;;;5020060;28;20328;-85
2023/10/26 08:18:38;;;;;;;8.47;7.50;;;11.90;99.90;;;;;;5021809;28;20188;-87
2023/10/26 08:21:05;;;;;;;10.20;8.57;;;11.90;99.90;;;;;;5020693;28;20164;-87
2023/10/26 08:23:32;;;;;;;9.50;8.60;;;11.90;99.90;;;;;;5016419;28;20169;-86
2023/10/26 08:26:08;;;;;;;10.70;8.67;;;12.00;99.90;;;;;;5017520;28;20204;-87
2023/10/26 08:28:35;;;;;;;10.97;8.73;;;12.10;99.90;;;;;;5017408;28;20528;-87
2023/10/26 08:31:02;;;;;;;12.03;9.17;;;12.30;99.90;;;;;;5022274;28;20597;-87
2023/10/26 08:33:30;;;;;;;10.90;9.17;;;12.30;99.90;;;;;;5012507;28;20171;-85
2023/10/26 08:35:56;;;;;;;13.53;10.00;;;12.50;99.90;;;;;;5027387;28;20519;-87
2023/10/26 08:38:22;;;;;;;11.67;9.73;;;12.60;99.90;;;;;;5033525;28;20170;-87
2023/10/26 08:40:51;;;;;;;11.27;9.07;;;12.70;99.90;;;;;;5018316;28;20177;-87
2023/10/26 08:43:18;;;;;;;10.87;8.73;;;12.50;99.20;;;;;;5015987;28;20206;-86
2023/10/26 08:45:45;;;;;;;11.43;8.47;;;12.60;98.70;;;;;;5017015;28;20190;-83
2023/10/26 08:48:18;;;;;;;10.63;8.83;;;12.60;98.10;;;;;;5015010;28;20209;-85
2023/10/26 08:50:48;;;;;;;12.03;9.33;;;12.60;98.00;;;;;;5019397;28;20184;-81
2023/10/26 08:53:16;;;;;;;11.90;8.57;;;12.60;98.50;;;;;;5028357;28;20244;-81
2023/10/26 08:55:43;;;;;;;12.77;9.80;;;12.50;99.20;;;;;;5030452;28;20197;-83
2023/10/26 08:58:10;;;;;;;12.67;9.03;;;12.60;98.40;;;;;;5027668;28;20198;-86
2023/10/26 09:00:38;;;;;;;13.63;9.83;;;12.70;97.00;;;;;;5028834;28;20200;-82
2023/10/26 09:03:04;;;;;;;17.57;10.10;;;12.80;96.60;;;;;;5025488;28;20193;-85
2023/10/26 09:05:31;;;;;;;13.20;8.80;;;13.00;96.30;;;;;;5024398;28;20260;-82
2023/10/26 09:07:57;;;;;;;13.73;8.60;;;12.80;95.80;;;;;;5029579;28;20159;-87
2023/10/26 09:10:33;;;;;;;8.87;6.77;;;12.70;97.40;;;;;;5017617;28;20174;-82
2023/10/26 09:13:04;;;;;;;8.30;7.03;;;12.80;98.00;;;;;;5017655;28;20189;-85
2023/10/26 09:15:30;;;;;;;10.37;7.50;;;12.80;97.90;;;;;;5015319;28;20193;-85
2023/10/26 09:17:57;;;;;;;12.73;7.43;;;13.00;97.20;;;;;;5016404;28;20186;-86
2023/10/26 09:20:24;;;;;;;9.57;7.07;;;13.10;96.10;;;;;;5016454;28;20223;-85
2023/10/26 09:22:50;;;;;;;8.67;7.37;;;13.20;95.00;;;;;;5019465;28;20295;-84
2023/10/26 09:25:19;;;;;;;9.73;8.03;;;13.30;93.90;;;;;;5024089;28;20198;-85
2023/10/26 09:27:46;;;;;;;10.03;8.57;;;13.40;94.50;;;;;;5022737;28;20590;-82
2023/10/26 09:30:28;;;;;;;10.23;7.13;;;13.20;95.00;;;;;;5029493;28;20178;-85
2023/10/26 09:32:56;;;;;;;8.80;7.27;;;13.20;95.70;;;;;;5032480;28;20156;-84
2023/10/26 09:35:32;;;;;;;9.83;8.13;;;13.20;96.50;;;;;;5030868;28;20162;-82
2023/10/26 09:37:58;;;;;;;8.80;7.90;;;13.10;97.00;;;;;;5027791;28;20216;-86
2023/10/26 09:40:26;;;;;;;10.27;8.27;;;13.20;96.90;;;;;;5020669;28;20236;-86
2023/10/26 09:42:55;;;;;;;10.23;8.03;;;13.30;95.40;;;;;;5019279;28;20594;-85
2023/10/26 09:45:22;;;;;;;8.97;7.30;;;13.40;95.00;;;;;;5020639;28;20205;-86
2023/10/26 09:47:49;;;;;;;9.00;7.60;;;13.50;94.10;;;;;;5025437;28;20221;-79
2023/10/26 09:50:16;;;;;;;9.17;6.97;;;13.50;93.10;;;;;;5037955;28;20197;-86
2023/10/26 09:52:44;;;;;;;10.90;7.60;;;13.50;93.40;;;;;;5026171;28;20316;-84
2023/10/26 09:55:11;;;;;;;9.00;6.73;;;13.60;93.20;;;;;;5025711;28;20187;-80
2023/10/26 09:57:44;;;;;;;8.40;7.30;;;13.60;92.70;;;;;;5017414;28;20194;-84
2023/10/26 10:00:10;;;;;;;10.70;7.60;;;13.80;92.90;;;;;;5005325;28;20249;-85
2023/10/26 10:02:36;;;;;;;8.57;7.47;;;14.00;91.20;;;;;;4981568;28;20634;-86
2023/10/26 10:05:02;;;;;;;13.20;7.70;;;14.10;88.70;;;;;;4998045;28;20230;-86
2023/10/26 10:07:43;;;;;;;9.03;6.77;;;14.20;84.00;;;;;;5014991;28;20179;-80
2023/10/26 10:10:10;;;;;;;9.17;7.40;;;14.20;81.60;;;;;;5014641;28;20183;-87
2023/10/26 10:12:38;;;;;;;8.90;7.77;;;14.30;79.90;;;;;;5003305;28;20203;-86
2023/10/26 10:15:09;;;;;;;7.93;7.10;;;14.50;77.70;;;;;;5013540;28;20194;-83
2023/10/26 10:17:46;;;;;;;9.03;7.93;;;14.60;74.90;;;;;;5018047;28;20233;-81
2023/10/26 10:20:14;;;;;;;10.27;7.83;;;14.60;72.40;;;;;;5015711;28;20431;-80
2023/10/26 10:22:40;;;;;;;8.70;7.43;;;14.50;70.80;;;;;;5017235;28;20226;-82
2023/10/26 10:25:10;;;;;;;8.70;7.33;;;14.70;71.60;;;;;;5016977;28;20660;-86
2023/10/26 10:28:02;;;;;;;8.37;7.50;;;14.70;68.60;;;;;;5003422;28;20210;-84
2023/10/26 10:30:46;;;;;;;8.73;7.30;;;14.60;70.40;;;;;;5001796;28;20181;-86
2023/10/26 10:33:29;;;;;;;9.73;8.00;;;14.80;70.90;;;;;;5000781;28;20159;-87
2023/10/26 10:36:03;;;;;;;9.53;8.20;;;14.70;67.10;;;;;;4999745;28;20169;-86
2023/10/26 10:38:30;;;;;;;10.23;8.00;;;14.70;65.90;;;;;;5000543;28;20243;-86
2023/10/26 10:40:55;;;;;;;10.80;8.10;;;14.90;68.30;;;;;;4996878;28;20218;-86
2023/10/26 10:43:31;;;;;;;12.80;8.57;;;15.00;65.30;;;;;;4997486;28;20179;-86
2023/10/26 10:46:08;;;;;;;9.23;7.83;;;15.10;63.80;;;;;;4999196;28;20640;-86
2023/10/26 10:48:35;;;;;;;8.90;7.53;;;15.20;62.80;;;;;;5001196;28;20268;-86
2023/10/26 10:51:03;;;;;;;10.03;7.33;;;15.10;64.10;;;;;;4997694;28;20214;-86
2023/10/26 10:53:31;;;;;;;7.87;7.07;;;15.20;64.30;;;;;;4998532;28;20184;-85
2023/10/26 10:55:58;;;;;;;9.80;7.87;;;15.30;60.60;;;;;;5000855;28;20172;-89
2023/10/26 10:58:24;;;;;;;7.67;6.80;;;15.40;60.00;;;;;;4983588;28;20655;-87
2023/10/26 11:00:49;;;;;;;8.40;6.37;;;15.10;58.50;;;;;;4998878;28;20175;-88
2023/10/26 11:03:19;;;;;;;7.33;6.30;;;14.80;63.60;;;;;;4998830;28;20681;-87
2023/10/26 11:05:45;;;;;;;9.63;7.30;;;14.60;72.50;;;;;;4999787;28;20195;-87
2023/10/26 11:08:11;;;;;;;10.47;6.53;;;14.50;74.60;;;;;;4999348;28;20246;-87
2023/10/26 11:10:38;;;;;;;7.43;6.27;;;14.50;75.80;;;;;;4998388;28;20186;-86
2023/10/26 11:13:04;;;;;;;9.20;6.63;;;14.50;79.60;;;;;;4998539;28;20644;-87
2023/10/26 11:15:39;;;;;;;11.37;6.73;;;14.30;84.40;;;;;;4998536;28;20265;-87
2023/10/26 11:18:07;;;;;;;11.87;7.03;;;14.30;89.90;;;;;;5000266;28;20181;-86
2023/10/26 11:20:38;;;;;;;7.13;6.10;;;14.30;91.10;;;;;;4999023;28;20337;-85
2023/10/26 11:23:09;;;;;;;6.70;5.87;;;14.10;93.40;;;;;;4999796;28;20164;-87
2023/10/26 11:25:35;;;;;;;8.77;6.07;;;14.00;95.60;;;;;;4999230;28;20289;-86
2023/10/26 11:28:03;;;;;;;6.80;6.10;;;14.00;97.80;;;;;;5011123;28;20241;-84
2023/10/26 11:30:51;;;;;;;7.20;6.23;;;14.00;97.80;;;;;;5017705;28;20210;-82
2023/10/26 11:33:33;;;;;;;11.90;7.07;;;14.00;98.50;;;;;;5018740;28;20160;-80
2023/10/26 11:36:00;;;;;;;7.73;6.93;;;13.80;99.70;;;;;;5011987;28;20167;-85
2023/10/26 11:38:31;;;;;;;7.90;6.53;;;14.00;99.90;;;;;;5012223;28;20184;-84
2023/10/26 11:40:56;;;;;;;7.33;6.10;;;14.30;99.90;;;;;;5008235;28;20276;-86
2023/10/26 11:43:34;;;;;;;9.33;6.83;;;14.20;98.10;;;;;;5002581;28;20643;-89
2023/10/26 11:46:06;;;;;;;7.40;6.23;;;14.30;98.40;;;;;;5001053;28;20206;-82
2023/10/26 11:48:37;;;;;;;7.97;6.07;;;14.30;97.10;;;;;;4998792;28;20211;-84
2023/10/26 11:51:06;;;;;;;6.93;6.20;;;14.30;97.00;;;;;;4998213;28;20238;-86
2023/10/26 11:53:32;;;;;;;7.67;6.30;;;14.20;95.90;;;;;;4997682;28;20178;-84
2023/10/26 11:55:58;;;;;;;7.00;5.43;;;14.30;97.20;;;;;;4999738;28;20635;-88
2023/10/26 11:58:24;;;;;;;7.27;5.93;;;14.30;96.20;;;;;;4998017;28;20179;-85
2023/10/26 12:00:50;;;;;;;10.50;7.00;;;14.40;96.10;;;;;;4997401;28;20169;-88
2023/10/26 12:03:16;;;;;;;7.50;6.30;;;14.50;95.90;;;;;;5012099;28;20742;-85
2023/10/26 12:05:42;;;;;;;8.77;6.60;;;14.60;94.00;;;;;;5012387;28;20204;-85
2023/10/26 12:08:09;;;;;;;6.73;5.50;;;14.60;94.60;;;;;;5011753;28;20178;-86
2023/10/26 12:10:35;;;;;;;9.53;5.90;;;14.50;95.70;;;;;;5010727;28;20178;-81
2023/10/26 12:13:01;;;;;;;6.00;4.77;;;14.60;96.80;;;;;;5018716;28;20166;-81
2023/10/26 12:15:28;;;;;;;6.67;4.60;;;14.50;96.00;;;;;;5019424;28;20164;-78
2023/10/26 12:17:55;;;;;;;8.27;4.47;;;14.60;95.50;;;;;;5019159;28;20179;-79
2023/10/26 12:20:24;;;;;;;5.27;4.10;;;14.60;94.60;;;;;;5016022;28;20213;-81
2023/10/26 12:22:52;;;;;;;5.40;3.60;;;14.50;93.10;;;;;;5015932;28;20155;-85
2023/10/26 12:25:17;;;;;;;4.37;3.30;;;14.40;93.70;;;;;;5013257;28;20221;-81
2023/10/26 12:27:49;;;;;;;5.23;3.20;;;14.20;93.50;;;;;;5008515;28;20623;-87
2023/10/26 12:30:15;;;;;;;6.13;3.10;;;14.50;93.60;;;;;;5014217;28;20156;-81
2023/10/26 12:32:41;;;;;;;3.93;2.70;;;14.60;92.20;;;;;;5010638;28;20229;-87
2023/10/26 12:35:08;;;;;;;4.20;2.40;;;14.50;91.10;;;;;;5006127;28;20195;-85
2023/10/26 12:37:37;;;;;;;3.67;2.00;;;14.40;90.20;;;;;;5007264;28;20250;-87
2023/10/26 12:40:08;;;;;;;2.53;1.70;;;14.60;90.00;;;;;;5008226;28;20179;-83